sensor_id;sensor_type;location;lat;lon;timestamp;P1;durP1;ratioP1;P2;durP2;ratioP2
28848;SDS011;15981;43.292;-2.888;2022-11-18T00:01:40;4.40;;;1.70;;
28848;SDS011;15981;43.292;-2.888;2022-11-18T00:04:06;5.05;;;2.00;;
28848;SDS011;15981;43.292;-2.888;2022-11-18T00:06:32;2.33;;;1.40;;
28848;SDS011;15981;43.292;-2.888;2022-11-18T00:08:58;3.90;;;1.60;;
28848;SDS011;15981;43.292;-2.888;2022-11-18T00:11:25;2.78;;;1.33;;
28848;SDS011;15981;43.292;-2.888;2022-11-18T00:14:11;4.25;;;1.30;;
28848;SDS011;15981;43.292;-2.888;2022-11-18T00:16:53;2.47;;;1.40;;
28848;SDS011;15981;43.292;-2.888;2022-11-18T00:19:21;3.20;;;1.52;;
28848;SDS011;15981;43.292;-2.888;2022-11-18T00:21:47;3.35;;;1.40;;
28848;SDS011;15981;43.292;-2.888;2022-11-18T00:24:12;2.90;;;1.40;;
28848;SDS011;15981;43.292;-2.888;2022-11-18T00:26:38;3.15;;;1.27;;
28848;SDS011;15981;43.292;-2.888;2022-11-18T00:29:04;2.80;;;1.30;;
28848;SDS011;15981;43.292;-2.888;2022-11-18T00:31:30;3.35;;;1.30;;
28848;SDS011;15981;43.292;-2.888;2022-11-18T00:33:55;3.00;;;1.30;;
28848;SDS011;15981;43.292;-2.888;2022-11-18T00:36:21;2.70;;;1.25;;
28848;SDS011;15981;43.292;-2.888;2022-11-18T00:38:47;3.63;;;1.20;;
28848;SDS011;15981;43.292;-2.888;2022-11-18T00:41:13;2.80;;;1.58;;
28848;SDS011;15981;43.292;-2.888;2022-11-18T00:43:39;2.35;;;1.20;;
28848;SDS011;15981;43.292;-2.888;2022-11-18T00:46:06;3.90;;;1.60;;
28848;SDS011;15981;43.292;-2.888;2022-11-18T00:48:32;2.72;;;1.33;;
28848;SDS011;15981;43.292;-2.888;2022-11-18T00:51:04;4.65;;;1.40;;
28848;SDS011;15981;43.292;-2.888;2022-11-18T00:53:30;3.45;;;1.35;;
28848;SDS011;15981;43.292;-2.888;2022-11-18T00:55:56;2.28;;;1.48;;
28848;SDS011;15981;43.292;-2.888;2022-11-18T00:58:22;3.35;;;1.20;;
28848;SDS011;15981;43.292;-2.888;2022-11-18T01:00:49;2.58;;;1.10;;
28848;SDS011;15981;43.292;-2.888;2022-11-18T01:03:15;2.60;;;1.40;;
28848;SDS011;15981;43.292;-2.888;2022-11-18T01:05:41;2.13;;;1.10;;
28848;SDS011;15981;43.292;-2.888;2022-11-18T01:08:07;3.60;;;1.38;;
28848;SDS011;15981;43.292;-2.888;2022-11-18T01:10:34;3.53;;;1.30;;
28848;SDS011;15981;43.292;-2.888;2022-11-18T01:13:00;2.10;;;1.00;;
28848;SDS011;15981;43.292;-2.888;2022-11-18T01:15:50;3.50;;;1.45;;
28848;SDS011;15981;43.292;-2.888;2022-11-18T01:18:17;5.68;;;1.60;;
28848;SDS011;15981;43.292;-2.888;2022-11-18T01:20:43;4.15;;;1.50;;
28848;SDS011;15981;43.292;-2.888;2022-11-18T01:23:09;3.90;;;1.60;;
28848;SDS011;15981;43.292;-2.888;2022-11-18T01:25:36;2.63;;;1.50;;
28848;SDS011;15981;43.292;-2.888;2022-11-18T01:28:03;2.13;;;1.30;;
28848;SDS011;15981;43.292;-2.888;2022-11-18T01:30:28;3.13;;;1.30;;
28848;SDS011;15981;43.292;-2.888;2022-11-18T01:32:57;1.85;;;1.55;;
28848;SDS011;15981;43.292;-2.888;2022-11-18T01:35:22;2.38;;;1.38;;
28848;SDS011;15981;43.292;-2.888;2022-11-18T01:37:48;4.45;;;1.40;;
28848;SDS011;15981;43.292;-2.888;2022-11-18T01:40:14;2.55;;;1.52;;
28848;SDS011;15981;43.292;-2.888;2022-11-18T01:42:39;1.88;;;1.50;;
28848;SDS011;15981;43.292;-2.888;2022-11-18T01:45:19;3.17;;;1.33;;
28848;SDS011;15981;43.292;-2.888;2022-11-18T01:47:50;2.92;;;1.45;;
28848;SDS011;15981;43.292;-2.888;2022-11-18T01:50:17;2.90;;;1.30;;
28848;SDS011;15981;43.292;-2.888;2022-11-18T01:52:44;2.45;;;1.60;;
28848;SDS011;15981;43.292;-2.888;2022-11-18T01:55:22;2.63;;;1.58;;
28848;SDS011;15981;43.292;-2.888;2022-11-18T01:57:49;3.17;;;1.42;;
28848;SDS011;15981;43.292;-2.888;2022-11-18T02:00:16;3.40;;;1.17;;
28848;SDS011;15981;43.292;-2.888;2022-11-18T02:02:42;2.25;;;1.23;;
28848;SDS011;15981;43.292;-2.888;2022-11-18T02:05:08;2.95;;;1.65;;
28848;SDS011;15981;43.292;-2.888;2022-11-18T02:07:36;3.80;;;1.50;;
28848;SDS011;15981;43.292;-2.888;2022-11-18T02:10:04;2.63;;;1.33;;
28848;SDS011;15981;43.292;-2.888;2022-11-18T02:12:31;2.65;;;1.40;;
28848;SDS011;15981;43.292;-2.888;2022-11-18T02:14:57;2.20;;;1.20;;
28848;SDS011;15981;43.292;-2.888;2022-11-18T02:17:44;2.88;;;1.40;;
28848;SDS011;15981;43.292;-2.888;2022-11-18T02:20:12;1.80;;;1.02;;
28848;SDS011;15981;43.292;-2.888;2022-11-18T02:30:23;2.38;;;1.38;;
28848;SDS011;15981;43.292;-2.888;2022-11-18T02:32:53;2.55;;;1.42;;
28848;SDS011;15981;43.292;-2.888;2022-11-18T02:35:27;4.65;;;1.80;;
28848;SDS011;15981;43.292;-2.888;2022-11-18T02:38:08;3.03;;;1.77;;
28848;SDS011;15981;43.292;-2.888;2022-11-18T02:40:42;3.28;;;1.60;;
28848;SDS011;15981;43.292;-2.888;2022-11-18T02:43:10;2.40;;;1.60;;
28848;SDS011;15981;43.292;-2.888;2022-11-18T02:45:38;5.15;;;1.60;;
28848;SDS011;15981;43.292;-2.888;2022-11-18T02:48:06;3.72;;;1.70;;
28848;SDS011;15981;43.292;-2.888;2022-11-18T02:50:33;3.25;;;1.60;;
28848;SDS011;15981;43.292;-2.888;2022-11-18T02:53:00;3.33;;;1.58;;
28848;SDS011;15981;43.292;-2.888;2022-11-18T02:55:28;4.43;;;1.98;;
28848;SDS011;15981;43.292;-2.888;2022-11-18T02:57:55;3.72;;;1.60;;
28848;SDS011;15981;43.292;-2.888;2022-11-18T03:00:21;3.00;;;1.77;;
28848;SDS011;15981;43.292;-2.888;2022-11-18T03:02:47;2.15;;;1.30;;
28848;SDS011;15981;43.292;-2.888;2022-11-18T03:05:29;3.33;;;1.77;;
28848;SDS011;15981;43.292;-2.888;2022-11-18T03:07:59;2.97;;;1.58;;
28848;SDS011;15981;43.292;-2.888;2022-11-18T03:10:29;3.58;;;1.70;;
28848;SDS011;15981;43.292;-2.888;2022-11-18T03:15:33;3.03;;;1.35;;
28848;SDS011;15981;43.292;-2.888;2022-11-18T03:18:13;3.70;;;1.70;;
28848;SDS011;15981;43.292;-2.888;2022-11-18T03:23:26;1.73;;;1.35;;
28848;SDS011;15981;43.292;-2.888;2022-11-18T03:25:54;3.03;;;1.60;;
28848;SDS011;15981;43.292;-2.888;2022-11-18T03:33:44;1.85;;;1.50;;
28848;SDS011;15981;43.292;-2.888;2022-11-18T03:36:11;3.25;;;1.85;;
28848;SDS011;15981;43.292;-2.888;2022-11-18T03:38:39;3.38;;;1.65;;
28848;SDS011;15981;43.292;-2.888;2022-11-18T03:41:07;2.90;;;1.40;;
28848;SDS011;15981;43.292;-2.888;2022-11-18T03:43:36;2.70;;;1.65;;
28848;SDS011;15981;43.292;-2.888;2022-11-18T03:46:11;2.25;;;1.45;;
28848;SDS011;15981;43.292;-2.888;2022-11-18T03:48:41;3.08;;;1.83;;
28848;SDS011;15981;43.292;-2.888;2022-11-18T03:51:10;3.58;;;1.52;;
28848;SDS011;15981;43.292;-2.888;2022-11-18T03:53:37;1.85;;;1.40;;
28848;SDS011;15981;43.292;-2.888;2022-11-18T03:56:08;2.78;;;1.73;;
28848;SDS011;15981;43.292;-2.888;2022-11-18T03:58:57;2.13;;;1.70;;
28848;SDS011;15981;43.292;-2.888;2022-11-18T04:01:24;4.63;;;1.83;;
28848;SDS011;15981;43.292;-2.888;2022-11-18T04:03:52;2.80;;;1.48;;
28848;SDS011;15981;43.292;-2.888;2022-11-18T04:06:23;3.60;;;1.67;;
28848;SDS011;15981;43.292;-2.888;2022-11-18T04:08:51;3.60;;;1.90;;
28848;SDS011;15981;43.292;-2.888;2022-11-18T04:11:21;2.85;;;1.67;;
28848;SDS011;15981;43.292;-2.888;2022-11-18T04:14:06;2.72;;;1.70;;
28848;SDS011;15981;43.292;-2.888;2022-11-18T04:16:38;1.65;;;1.52;;
28848;SDS011;15981;43.292;-2.888;2022-11-18T04:19:03;1.95;;;1.67;;
28848;SDS011;15981;43.292;-2.888;2022-11-18T04:21:29;2.10;;;1.58;;
28848;SDS011;15981;43.292;-2.888;2022-11-18T04:23:55;2.72;;;1.42;;
28848;SDS011;15981;43.292;-2.888;2022-11-18T04:26:20;2.75;;;1.48;;
28848;SDS011;15981;43.292;-2.888;2022-11-18T04:28:46;2.78;;;1.55;;
28848;SDS011;15981;43.292;-2.888;2022-11-18T04:31:12;1.92;;;1.30;;
28848;SDS011;15981;43.292;-2.888;2022-11-18T04:33:37;1.70;;;1.48;;
28848;SDS011;15981;43.292;-2.888;2022-11-18T04:36:03;2.40;;;1.30;;
28848;SDS011;15981;43.292;-2.888;2022-11-18T04:38:29;2.88;;;1.70;;
28848;SDS011;15981;43.292;-2.888;2022-11-18T04:40:55;2.63;;;1.70;;
28848;SDS011;15981;43.292;-2.888;2022-11-18T04:43:21;1.55;;;1.27;;
28848;SDS011;15981;43.292;-2.888;2022-11-18T04:45:46;2.17;;;1.50;;
28848;SDS011;15981;43.292;-2.888;2022-11-18T04:48:12;2.75;;;1.52;;
28848;SDS011;15981;43.292;-2.888;2022-11-18T04:50:38;2.78;;;1.60;;
28848;SDS011;15981;43.292;-2.888;2022-11-18T04:53:03;3.85;;;1.63;;
28848;SDS011;15981;43.292;-2.888;2022-11-18T04:55:29;1.92;;;1.40;;
28848;SDS011;15981;43.292;-2.888;2022-11-18T04:57:55;2.58;;;1.42;;
28848;SDS011;15981;43.292;-2.888;2022-11-18T05:00:20;2.17;;;1.30;;
28848;SDS011;15981;43.292;-2.888;2022-11-18T05:02:47;2.75;;;1.20;;
28848;SDS011;15981;43.292;-2.888;2022-11-18T05:05:13;3.20;;;1.50;;
28848;SDS011;15981;43.292;-2.888;2022-11-18T05:07:39;2.78;;;1.30;;
28848;SDS011;15981;43.292;-2.888;2022-11-18T05:10:04;3.33;;;1.40;;
28848;SDS011;15981;43.292;-2.888;2022-11-18T05:12:30;2.30;;;1.35;;
28848;SDS011;15981;43.292;-2.888;2022-11-18T05:15:15;2.03;;;1.27;;
28848;SDS011;15981;43.292;-2.888;2022-11-18T05:17:41;3.35;;;1.58;;
28848;SDS011;15981;43.292;-2.888;2022-11-18T05:20:07;3.83;;;1.60;;
28848;SDS011;15981;43.292;-2.888;2022-11-18T05:22:32;4.30;;;1.55;;
28848;SDS011;15981;43.292;-2.888;2022-11-18T05:24:58;2.75;;;1.65;;
28848;SDS011;15981;43.292;-2.888;2022-11-18T05:27:24;3.33;;;1.50;;
28848;SDS011;15981;43.292;-2.888;2022-11-18T05:29:50;2.80;;;1.23;;
28848;SDS011;15981;43.292;-2.888;2022-11-18T05:32:16;1.55;;;1.20;;
28848;SDS011;15981;43.292;-2.888;2022-11-18T05:34:42;2.22;;;1.35;;
28848;SDS011;15981;43.292;-2.888;2022-11-18T05:37:08;3.00;;;1.40;;
28848;SDS011;15981;43.292;-2.888;2022-11-18T05:39:34;1.95;;;1.25;;
28848;SDS011;15981;43.292;-2.888;2022-11-18T05:41:59;3.85;;;1.95;;
28848;SDS011;15981;43.292;-2.888;2022-11-18T05:44:44;2.78;;;1.60;;
28848;SDS011;15981;43.292;-2.888;2022-11-18T05:47:09;2.60;;;1.50;;
28848;SDS011;15981;43.292;-2.888;2022-11-18T05:49:35;2.47;;;1.50;;
28848;SDS011;15981;43.292;-2.888;2022-11-18T05:52:01;2.42;;;1.52;;
28848;SDS011;15981;43.292;-2.888;2022-11-18T05:54:27;2.13;;;1.17;;
28848;SDS011;15981;43.292;-2.888;2022-11-18T05:56:53;3.97;;;1.52;;
28848;SDS011;15981;43.292;-2.888;2022-11-18T05:59:19;4.55;;;1.70;;
28848;SDS011;15981;43.292;-2.888;2022-11-18T06:04:17;3.47;;;1.52;;
28848;SDS011;15981;43.292;-2.888;2022-11-18T06:06:44;2.80;;;1.80;;
28848;SDS011;15981;43.292;-2.888;2022-11-18T06:09:11;1.70;;;1.20;;
28848;SDS011;15981;43.292;-2.888;2022-11-18T06:11:40;2.70;;;1.30;;
28848;SDS011;15981;43.292;-2.888;2022-11-18T06:17:03;2.15;;;1.30;;
28848;SDS011;15981;43.292;-2.888;2022-11-18T06:19:29;3.03;;;1.80;;
28848;SDS011;15981;43.292;-2.888;2022-11-18T06:21:56;2.88;;;1.70;;
28848;SDS011;15981;43.292;-2.888;2022-11-18T06:24:22;2.47;;;1.50;;
28848;SDS011;15981;43.292;-2.888;2022-11-18T06:26:48;3.28;;;1.55;;
28848;SDS011;15981;43.292;-2.888;2022-11-18T06:29:14;3.20;;;1.50;;
28848;SDS011;15981;43.292;-2.888;2022-11-18T06:31:41;3.20;;;1.80;;
28848;SDS011;15981;43.292;-2.888;2022-11-18T06:34:07;2.65;;;1.50;;
28848;SDS011;15981;43.292;-2.888;2022-11-18T06:36:32;4.93;;;1.80;;
28848;SDS011;15981;43.292;-2.888;2022-11-18T06:39:02;2.33;;;1.40;;
28848;SDS011;15981;43.292;-2.888;2022-11-18T06:41:28;2.72;;;1.40;;
28848;SDS011;15981;43.292;-2.888;2022-11-18T06:43:54;2.22;;;1.30;;
28848;SDS011;15981;43.292;-2.888;2022-11-18T06:46:19;3.97;;;1.48;;
28848;SDS011;15981;43.292;-2.888;2022-11-18T06:49:03;2.80;;;1.38;;
28848;SDS011;15981;43.292;-2.888;2022-11-18T06:51:29;2.78;;;1.42;;
28848;SDS011;15981;43.292;-2.888;2022-11-18T06:53:55;1.80;;;1.38;;
28848;SDS011;15981;43.292;-2.888;2022-11-18T06:56:21;2.92;;;1.50;;
28848;SDS011;15981;43.292;-2.888;2022-11-18T06:58:47;3.25;;;1.80;;
28848;SDS011;15981;43.292;-2.888;2022-11-18T07:01:17;3.75;;;1.65;;
28848;SDS011;15981;43.292;-2.888;2022-11-18T07:03:44;4.15;;;2.00;;
28848;SDS011;15981;43.292;-2.888;2022-11-18T07:06:10;3.17;;;1.60;;
28848;SDS011;15981;43.292;-2.888;2022-11-18T07:08:37;2.70;;;1.70;;
28848;SDS011;15981;43.292;-2.888;2022-11-18T07:11:04;4.93;;;1.67;;
28848;SDS011;15981;43.292;-2.888;2022-11-18T07:13:30;3.72;;;1.80;;
28848;SDS011;15981;43.292;-2.888;2022-11-18T07:16:00;4.07;;;2.05;;
28848;SDS011;15981;43.292;-2.888;2022-11-18T07:18:28;4.13;;;1.90;;
28848;SDS011;15981;43.292;-2.888;2022-11-18T07:20:54;5.75;;;2.40;;
28848;SDS011;15981;43.292;-2.888;2022-11-18T07:23:19;6.65;;;2.53;;
28848;SDS011;15981;43.292;-2.888;2022-11-18T07:25:45;5.10;;;2.65;;
28848;SDS011;15981;43.292;-2.888;2022-11-18T07:28:11;4.68;;;2.40;;
28848;SDS011;15981;43.292;-2.888;2022-11-18T07:30:36;4.82;;;2.40;;
28848;SDS011;15981;43.292;-2.888;2022-11-18T07:33:02;5.60;;;2.65;;
28848;SDS011;15981;43.292;-2.888;2022-11-18T07:35:28;6.80;;;2.72;;
28848;SDS011;15981;43.292;-2.888;2022-11-18T07:37:53;5.90;;;2.03;;
28848;SDS011;15981;43.292;-2.888;2022-11-18T07:40:19;4.93;;;2.05;;
28848;SDS011;15981;43.292;-2.888;2022-11-18T07:42:45;3.47;;;1.70;;
28848;SDS011;15981;43.292;-2.888;2022-11-18T07:45:11;4.72;;;1.70;;
28848;SDS011;15981;43.292;-2.888;2022-11-18T07:47:36;4.00;;;2.03;;
28848;SDS011;15981;43.292;-2.888;2022-11-18T07:50:03;3.03;;;1.50;;
28848;SDS011;15981;43.292;-2.888;2022-11-18T07:52:29;2.78;;;1.60;;
28848;SDS011;15981;43.292;-2.888;2022-11-18T07:54:54;4.00;;;1.58;;
28848;SDS011;15981;43.292;-2.888;2022-11-18T07:57:20;3.58;;;1.60;;
28848;SDS011;15981;43.292;-2.888;2022-11-18T07:59:46;4.03;;;1.70;;
28848;SDS011;15981;43.292;-2.888;2022-11-18T08:02:11;2.08;;;1.48;;
28848;SDS011;15981;43.292;-2.888;2022-11-18T08:04:37;2.92;;;1.45;;
28848;SDS011;15981;43.292;-2.888;2022-11-18T08:07:03;2.88;;;1.33;;
28848;SDS011;15981;43.292;-2.888;2022-11-18T08:09:29;1.30;;;1.00;;
28848;SDS011;15981;43.292;-2.888;2022-11-18T08:11:54;2.40;;;1.02;;
28848;SDS011;15981;43.292;-2.888;2022-11-18T08:14:20;2.05;;;1.10;;
28848;SDS011;15981;43.292;-2.888;2022-11-18T08:16:49;3.75;;;1.05;;
28848;SDS011;15981;43.292;-2.888;2022-11-18T08:19:15;2.92;;;1.10;;
28848;SDS011;15981;43.292;-2.888;2022-11-18T08:21:40;2.40;;;1.10;;
28848;SDS011;15981;43.292;-2.888;2022-11-18T08:24:08;1.95;;;1.17;;
28848;SDS011;15981;43.292;-2.888;2022-11-18T08:26:34;2.28;;;0.80;;
28848;SDS011;15981;43.292;-2.888;2022-11-18T08:28:59;3.28;;;1.02;;
28848;SDS011;15981;43.292;-2.888;2022-11-18T08:31:26;2.47;;;1.02;;
28848;SDS011;15981;43.292;-2.888;2022-11-18T08:34:01;2.13;;;0.80;;
28848;SDS011;15981;43.292;-2.888;2022-11-18T08:36:29;2.38;;;0.82;;
28848;SDS011;15981;43.292;-2.888;2022-11-18T08:38:55;1.67;;;0.77;;
28848;SDS011;15981;43.292;-2.888;2022-11-18T08:41:26;1.52;;;0.60;;
28848;SDS011;15981;43.292;-2.888;2022-11-18T08:43:53;2.13;;;1.00;;
28848;SDS011;15981;43.292;-2.888;2022-11-18T08:46:19;3.70;;;1.00;;
28848;SDS011;15981;43.292;-2.888;2022-11-18T08:48:45;1.73;;;0.90;;
28848;SDS011;15981;43.292;-2.888;2022-11-18T08:51:11;1.92;;;0.90;;
28848;SDS011;15981;43.292;-2.888;2022-11-18T08:53:37;3.15;;;0.90;;
28848;SDS011;15981;43.292;-2.888;2022-11-18T08:56:03;2.33;;;0.88;;
28848;SDS011;15981;43.292;-2.888;2022-11-18T08:58:29;1.10;;;0.70;;
28848;SDS011;15981;43.292;-2.888;2022-11-18T09:00:55;1.85;;;0.80;;
28848;SDS011;15981;43.292;-2.888;2022-11-18T09:03:21;1.65;;;1.00;;
28848;SDS011;15981;43.292;-2.888;2022-11-18T09:05:47;3.08;;;1.25;;
28848;SDS011;15981;43.292;-2.888;2022-11-18T09:08:12;1.75;;;0.90;;
28848;SDS011;15981;43.292;-2.888;2022-11-18T09:10:39;1.95;;;0.90;;
28848;SDS011;15981;43.292;-2.888;2022-11-18T09:13:05;2.88;;;1.05;;
28848;SDS011;15981;43.292;-2.888;2022-11-18T09:15:31;2.45;;;0.90;;
28848;SDS011;15981;43.292;-2.888;2022-11-18T09:17:57;3.63;;;0.93;;
28848;SDS011;15981;43.292;-2.888;2022-11-18T09:20:23;2.17;;;0.90;;
28848;SDS011;15981;43.292;-2.888;2022-11-18T09:22:48;3.95;;;1.30;;
28848;SDS011;15981;43.292;-2.888;2022-11-18T09:25:14;1.27;;;0.90;;
28848;SDS011;15981;43.292;-2.888;2022-11-18T09:27:40;4.18;;;1.00;;
28848;SDS011;15981;43.292;-2.888;2022-11-18T09:30:06;2.58;;;1.17;;
28848;SDS011;15981;43.292;-2.888;2022-11-18T09:32:32;3.28;;;1.02;;
28848;SDS011;15981;43.292;-2.888;2022-11-18T09:34:58;3.03;;;1.25;;
28848;SDS011;15981;43.292;-2.888;2022-11-18T09:37:23;1.67;;;1.02;;
28848;SDS011;15981;43.292;-2.888;2022-11-18T09:39:49;1.80;;;1.00;;
28848;SDS011;15981;43.292;-2.888;2022-11-18T09:42:58;4.03;;;1.35;;
28848;SDS011;15981;43.292;-2.888;2022-11-18T09:45:12;2.95;;;1.40;;
28848;SDS011;15981;43.292;-2.888;2022-11-18T09:47:42;4.90;;;1.65;;
28848;SDS011;15981;43.292;-2.888;2022-11-18T09:55:21;4.38;;;1.95;;
28848;SDS011;15981;43.292;-2.888;2022-11-18T09:57:51;5.25;;;2.15;;
28848;SDS011;15981;43.292;-2.888;2022-11-18T10:00:22;5.65;;;2.30;;
28848;SDS011;15981;43.292;-2.888;2022-11-18T10:02:59;4.65;;;1.90;;
28848;SDS011;15981;43.292;-2.888;2022-11-18T10:05:26;4.80;;;2.20;;
28848;SDS011;15981;43.292;-2.888;2022-11-18T10:16:09;2.20;;;1.10;;
28848;SDS011;15981;43.292;-2.888;2022-11-18T10:18:54;1.63;;;1.02;;
28848;SDS011;15981;43.292;-2.888;2022-11-18T10:24:24;2.17;;;1.10;;
28848;SDS011;15981;43.292;-2.888;2022-11-18T10:26:54;2.90;;;1.10;;
28848;SDS011;15981;43.292;-2.888;2022-11-18T10:29:20;2.25;;;1.10;;
28848;SDS011;15981;43.292;-2.888;2022-11-18T10:32:02;2.20;;;1.20;;
28848;SDS011;15981;43.292;-2.888;2022-11-18T10:34:29;2.63;;;1.20;;
28848;SDS011;15981;43.292;-2.888;2022-11-18T10:36:59;3.78;;;1.15;;
28848;SDS011;15981;43.292;-2.888;2022-11-18T10:39:25;4.25;;;1.00;;
28848;SDS011;15981;43.292;-2.888;2022-11-18T10:41:51;2.60;;;0.98;;
28848;SDS011;15981;43.292;-2.888;2022-11-18T10:44:37;1.83;;;0.98;;
28848;SDS011;15981;43.292;-2.888;2022-11-18T10:47:21;2.92;;;1.20;;
28848;SDS011;15981;43.292;-2.888;2022-11-18T10:49:47;1.55;;;0.90;;
28848;SDS011;15981;43.292;-2.888;2022-11-18T10:52:13;2.85;;;0.95;;
28848;SDS011;15981;43.292;-2.888;2022-11-18T10:54:40;2.17;;;0.93;;
28848;SDS011;15981;43.292;-2.888;2022-11-18T10:57:19;3.63;;;1.20;;
28848;SDS011;15981;43.292;-2.888;2022-11-18T10:59:47;1.65;;;1.00;;
28848;SDS011;15981;43.292;-2.888;2022-11-18T11:04:47;1.58;;;0.80;;
28848;SDS011;15981;43.292;-2.888;2022-11-18T11:10:17;2.25;;;1.13;;
28848;SDS011;15981;43.292;-2.888;2022-11-18T11:12:45;3.47;;;1.10;;
28848;SDS011;15981;43.292;-2.888;2022-11-18T11:17:38;2.13;;;1.05;;
28848;SDS011;15981;43.292;-2.888;2022-11-18T11:22:42;1.77;;;0.88;;
28848;SDS011;15981;43.292;-2.888;2022-11-18T11:25:22;2.25;;;0.95;;
28848;SDS011;15981;43.292;-2.888;2022-11-18T11:27:53;3.08;;;1.00;;
28848;SDS011;15981;43.292;-2.888;2022-11-18T11:30:20;1.60;;;0.90;;
28848;SDS011;15981;43.292;-2.888;2022-11-18T11:33:02;1.63;;;0.90;;
28848;SDS011;15981;43.292;-2.888;2022-11-18T11:35:49;2.05;;;0.90;;
28848;SDS011;15981;43.292;-2.888;2022-11-18T11:38:34;2.38;;;0.93;;
28848;SDS011;15981;43.292;-2.888;2022-11-18T11:43:44;2.28;;;1.00;;
28848;SDS011;15981;43.292;-2.888;2022-11-18T11:46:31;1.50;;;1.10;;
28848;SDS011;15981;43.292;-2.888;2022-11-18T11:52:20;1.52;;;0.90;;
28848;SDS011;15981;43.292;-2.888;2022-11-18T11:54:34;1.10;;;0.93;;
28848;SDS011;15981;43.292;-2.888;2022-11-18T12:04:56;0.93;;;0.70;;
28848;SDS011;15981;43.292;-2.888;2022-11-18T12:07:27;1.25;;;0.85;;
28848;SDS011;15981;43.292;-2.888;2022-11-18T12:12:24;1.40;;;0.80;;
28848;SDS011;15981;43.292;-2.888;2022-11-18T12:15:14;2.47;;;1.20;;
28848;SDS011;15981;43.292;-2.888;2022-11-18T12:20:52;2.85;;;1.55;;
28848;SDS011;15981;43.292;-2.888;2022-11-18T12:23:09;3.08;;;1.48;;
28848;SDS011;15981;43.292;-2.888;2022-11-18T12:28:10;2.30;;;1.38;;
28848;SDS011;15981;43.292;-2.888;2022-11-18T12:30:46;3.22;;;1.50;;
28848;SDS011;15981;43.292;-2.888;2022-11-18T12:33:13;11.13;;;8.95;;
28848;SDS011;15981;43.292;-2.888;2022-11-18T12:35:40;40.05;;;30.13;;
28848;SDS011;15981;43.292;-2.888;2022-11-18T12:38:26;62.05;;;43.40;;
28848;SDS011;15981;43.292;-2.888;2022-11-18T12:40:52;87.03;;;52.08;;
28848;SDS011;15981;43.292;-2.888;2022-11-18T12:46:08;79.05;;;45.58;;
28848;SDS011;15981;43.292;-2.888;2022-11-18T12:51:01;51.20;;;31.83;;
28848;SDS011;15981;43.292;-2.888;2022-11-18T12:53:38;46.65;;;27.70;;
28848;SDS011;15981;43.292;-2.888;2022-11-18T13:01:18;68.38;;;31.88;;
28848;SDS011;15981;43.292;-2.888;2022-11-18T13:03:44;66.32;;;32.17;;
28848;SDS011;15981;43.292;-2.888;2022-11-18T13:06:31;55.53;;;27.48;;
28848;SDS011;15981;43.292;-2.888;2022-11-18T13:09:00;55.20;;;28.55;;
28848;SDS011;15981;43.292;-2.888;2022-11-18T13:11:27;46.75;;;25.15;;
28848;SDS011;15981;43.292;-2.888;2022-11-18T13:14:16;42.42;;;20.88;;
28848;SDS011;15981;43.292;-2.888;2022-11-18T13:17:00;43.63;;;21.67;;
28848;SDS011;15981;43.292;-2.888;2022-11-18T13:19:55;37.28;;;19.15;;
28848;SDS011;15981;43.292;-2.888;2022-11-18T13:22:21;36.10;;;18.05;;
28848;SDS011;15981;43.292;-2.888;2022-11-18T13:25:19;31.25;;;17.13;;
28848;SDS011;15981;43.292;-2.888;2022-11-18T13:31:00;39.39;;;17.98;;
28848;SDS011;15981;43.292;-2.888;2022-11-18T13:33:31;34.38;;;17.17;;
28848;SDS011;15981;43.292;-2.888;2022-11-18T13:35:59;28.77;;;14.05;;
28848;SDS011;15981;43.292;-2.888;2022-11-18T13:38:24;27.05;;;13.93;;
28848;SDS011;15981;43.292;-2.888;2022-11-18T13:40:50;25.10;;;13.15;;
28848;SDS011;15981;43.292;-2.888;2022-11-18T13:43:29;26.77;;;13.25;;
28848;SDS011;15981;43.292;-2.888;2022-11-18T13:45:56;25.65;;;13.18;;
28848;SDS011;15981;43.292;-2.888;2022-11-18T13:48:22;22.45;;;13.15;;
28848;SDS011;15981;43.292;-2.888;2022-11-18T13:50:49;22.48;;;11.43;;
28848;SDS011;15981;43.292;-2.888;2022-11-18T13:53:31;22.23;;;10.77;;
28848;SDS011;15981;43.292;-2.888;2022-11-18T13:55:59;19.40;;;11.52;;
28848;SDS011;15981;43.292;-2.888;2022-11-18T14:00:59;22.92;;;10.38;;
28848;SDS011;15981;43.292;-2.888;2022-11-18T14:03:27;22.52;;;11.95;;
28848;SDS011;15981;43.292;-2.888;2022-11-18T14:05:54;17.20;;;8.90;;
28848;SDS011;15981;43.292;-2.888;2022-11-18T14:08:27;16.58;;;9.32;;
28848;SDS011;15981;43.292;-2.888;2022-11-18T14:10:53;15.25;;;8.27;;
28848;SDS011;15981;43.292;-2.888;2022-11-18T14:13:24;12.75;;;6.75;;
28848;SDS011;15981;43.292;-2.888;2022-11-18T14:15:55;15.38;;;7.25;;
28848;SDS011;15981;43.292;-2.888;2022-11-18T14:20:50;14.13;;;7.20;;
28848;SDS011;15981;43.292;-2.888;2022-11-18T14:23:17;14.60;;;6.60;;
28848;SDS011;15981;43.292;-2.888;2022-11-18T14:25:45;13.32;;;6.50;;
28848;SDS011;15981;43.292;-2.888;2022-11-18T14:28:12;12.43;;;6.70;;
28848;SDS011;15981;43.292;-2.888;2022-11-18T14:30:56;12.20;;;5.78;;
28848;SDS011;15981;43.292;-2.888;2022-11-18T14:33:22;8.48;;;4.35;;
28848;SDS011;15981;43.292;-2.888;2022-11-18T14:35:56;7.97;;;3.90;;
28848;SDS011;15981;43.292;-2.888;2022-11-18T14:38:23;8.80;;;4.10;;
28848;SDS011;15981;43.292;-2.888;2022-11-18T14:40:53;9.02;;;4.30;;
28848;SDS011;15981;43.292;-2.888;2022-11-18T14:43:20;7.30;;;3.88;;
28848;SDS011;15981;43.292;-2.888;2022-11-18T14:45:46;7.47;;;4.13;;
28848;SDS011;15981;43.292;-2.888;2022-11-18T14:48:11;6.20;;;3.65;;
28848;SDS011;15981;43.292;-2.888;2022-11-18T14:50:40;7.57;;;3.90;;
28848;SDS011;15981;43.292;-2.888;2022-11-18T14:53:05;8.38;;;3.83;;
28848;SDS011;15981;43.292;-2.888;2022-11-18T14:55:31;9.13;;;4.13;;
28848;SDS011;15981;43.292;-2.888;2022-11-18T14:57:57;8.18;;;4.25;;
28848;SDS011;15981;43.292;-2.888;2022-11-18T15:00:23;4.50;;;2.70;;
28848;SDS011;15981;43.292;-2.888;2022-11-18T15:02:48;6.95;;;3.42;;
28848;SDS011;15981;43.292;-2.888;2022-11-18T15:05:14;7.95;;;3.78;;
28848;SDS011;15981;43.292;-2.888;2022-11-18T15:07:40;7.95;;;3.10;;
28848;SDS011;15981;43.292;-2.888;2022-11-18T15:10:06;6.20;;;3.00;;
28848;SDS011;15981;43.292;-2.888;2022-11-18T15:12:31;4.88;;;2.67;;
28848;SDS011;15981;43.292;-2.888;2022-11-18T15:14:57;5.38;;;2.78;;
28848;SDS011;15981;43.292;-2.888;2022-11-18T15:17:23;5.68;;;3.20;;
28848;SDS011;15981;43.292;-2.888;2022-11-18T15:19:49;4.72;;;2.60;;
28848;SDS011;15981;43.292;-2.888;2022-11-18T15:22:15;5.65;;;2.63;;
28848;SDS011;15981;43.292;-2.888;2022-11-18T15:24:41;6.63;;;2.75;;
28848;SDS011;15981;43.292;-2.888;2022-11-18T15:27:08;5.05;;;2.25;;
28848;SDS011;15981;43.292;-2.888;2022-11-18T15:29:34;5.72;;;3.05;;
28848;SDS011;15981;43.292;-2.888;2022-11-18T15:32:00;5.55;;;2.55;;
28848;SDS011;15981;43.292;-2.888;2022-11-18T15:34:29;6.40;;;2.70;;
28848;SDS011;15981;43.292;-2.888;2022-11-18T15:36:55;8.43;;;2.85;;
28848;SDS011;15981;43.292;-2.888;2022-11-18T15:39:22;5.65;;;2.67;;
28848;SDS011;15981;43.292;-2.888;2022-11-18T15:41:48;5.65;;;2.70;;
28848;SDS011;15981;43.292;-2.888;2022-11-18T15:44:14;6.05;;;2.53;;
28848;SDS011;15981;43.292;-2.888;2022-11-18T15:46:40;6.28;;;2.60;;
28848;SDS011;15981;43.292;-2.888;2022-11-18T15:49:06;4.90;;;2.72;;
28848;SDS011;15981;43.292;-2.888;2022-11-18T15:51:32;3.85;;;2.00;;
28848;SDS011;15981;43.292;-2.888;2022-11-18T15:53:58;5.00;;;1.85;;
28848;SDS011;15981;43.292;-2.888;2022-11-18T15:56:27;3.95;;;1.85;;
28848;SDS011;15981;43.292;-2.888;2022-11-18T15:58:54;4.20;;;2.30;;
28848;SDS011;15981;43.292;-2.888;2022-11-18T16:01:20;4.10;;;1.98;;
28848;SDS011;15981;43.292;-2.888;2022-11-18T16:03:47;3.90;;;2.10;;
28848;SDS011;15981;43.292;-2.888;2022-11-18T16:06:12;5.60;;;2.20;;
28848;SDS011;15981;43.292;-2.888;2022-11-18T16:08:38;5.07;;;2.17;;
28848;SDS011;15981;43.292;-2.888;2022-11-18T16:11:04;4.13;;;2.15;;